Alder, Washington
Current Conditions -  °F | °C
As of 12:43 PM on Friday 28 Nov 2014 (Local Time) from KGRF Reporting Station
Heavy Rain Heavy Rain  
Wind Chill: 39°   Ceiling: 1200
Heat Index: 45°   Visibility: 3mi
Dew Point: 45°   Wind: 10mph
Humidity: 100%   Direction: 350°N
Pressure: 29.47"   Gusts: NA
Location:  46.8687°N, 122.208°W
Report Text: KGRF 282043Z AUTO 35009KT 3SM +RA BR SCT003 OVC012 07/07 A2947 RMK AO2 RAB2001DZE2001 CIG 003V012 $
Loading
Personal Weather Stations






























Interactive Weather Map New forecast layout! Learn more

10-Day Weather Forecast

Advertisements
Track Severe Weather on mobile